Terminal Aerodrome Forecast
Issued by NWS Charleston, SC

Home | Current Version | Previous Version | Text Only | Print | Product List | Glossary On
Versions: 1 2 3 4 5 6 7 8 9 10 11 12
412
FTUS42 KCHS 220528
TAFSAV
TAF
KSAV 220528Z 2206/2306 08005KT P6SM VCSH SCT025 BKN035
     FM221500 11010KT P6SM VCSH SCT030 BKN040
     FM222300 08004KT P6SM SCT030 BKN150=

USA.gov is the U.S. government's official web portal to all federal, state and local government web resources and services.